Time;durP1;ratioP1;P1;durP2;ratioP2;P2;SDS_P1;SDS_P2;PMS_P1;PMS_P2;Temp;Humidity;BMP_temperature;BMP_pressure;BME280_temperature;BME280_humidity;BME280_pressure;Samples;Min_cycle;Max_cycle;Signal;HPM_P1;HPM_P2
2021/12/08 00:01:20;;;;;;;5.00;2.00;;;21.70;99.90;;;;;;5099700;28;20024;-71
2021/12/08 00:03:48;;;;;;;5.05;1.88;;;21.70;99.90;;;;;;5097438;28;20100;-72
2021/12/08 00:06:15;;;;;;;4.40;2.15;;;21.80;99.90;;;;;;5097339;28;20478;-71
2021/12/08 00:14:34;;;;;;;6.32;1.80;;;22.50;99.90;;;;;;5002002;28;20472;-68
2021/12/08 00:17:01;;;;;;;6.72;1.75;;;22.50;99.90;;;;;;5058410;28;20047;-72
2021/12/08 00:19:28;;;;;;;6.25;1.90;;;22.40;99.90;;;;;;5097458;28;20011;-69
2021/12/08 00:21:55;;;;;;;8.10;1.92;;;22.40;99.90;;;;;;5098510;28;20113;-72
2021/12/08 00:24:23;;;;;;;6.80;1.52;;;22.50;99.90;;;;;;5099867;28;20106;-70
2021/12/08 00:26:50;;;;;;;4.43;1.60;;;22.60;99.90;;;;;;5097217;28;20179;-71
2021/12/08 00:29:17;;;;;;;6.55;1.60;;;22.70;99.90;;;;;;5078206;28;20133;-69
2021/12/08 00:31:46;;;;;;;3.50;1.33;;;22.70;99.90;;;;;;5097602;28;20182;-68
2021/12/08 00:34:14;;;;;;;6.10;1.75;;;22.70;99.90;;;;;;5099172;28;20394;-69
2021/12/08 00:36:44;;;;;;;6.55;1.75;;;22.70;99.90;;;;;;5096026;28;20389;-71
2021/12/08 00:39:12;;;;;;;7.10;1.50;;;22.70;99.90;;;;;;5081261;28;20024;-72
2021/12/08 00:41:40;;;;;;;2.00;1.40;;;22.70;99.90;;;;;;5097521;28;20050;-68
2021/12/08 00:44:08;;;;;;;4.65;1.90;;;22.70;99.90;;;;;;5096268;28;20359;-68
2021/12/08 00:46:36;;;;;;;6.35;2.00;;;22.70;99.90;;;;;;5097004;28;20135;-68
2021/12/08 00:49:05;;;;;;;4.15;1.77;;;22.80;99.90;;;;;;5096896;28;20016;-73
2021/12/08 00:51:32;;;;;;;5.80;1.95;;;22.90;99.90;;;;;;5078195;28;20024;-70
2021/12/08 00:54:00;;;;;;;7.65;2.13;;;22.90;99.90;;;;;;5105012;28;20031;-71
2021/12/08 00:56:29;;;;;;;4.53;1.80;;;22.80;99.90;;;;;;5101022;28;20054;-69
2021/12/08 00:58:57;;;;;;;7.07;2.33;;;22.70;99.90;;;;;;5100057;28;20153;-69
2021/12/08 01:01:24;;;;;;;6.18;1.60;;;22.50;99.90;;;;;;5096298;28;20028;-71
2021/12/08 01:03:52;;;;;;;5.03;2.20;;;22.40;99.90;;;;;;5100000;28;20028;-68
2021/12/08 01:06:19;;;;;;;7.28;2.75;;;22.50;99.90;;;;;;5101609;28;20020;-69
2021/12/08 01:08:47;;;;;;;6.00;3.20;;;22.70;99.90;;;;;;5082944;28;20034;-69
2021/12/08 01:11:18;;;;;;;4.95;1.90;;;23.00;99.90;;;;;;5100130;28;20032;-70
2021/12/08 01:13:46;;;;;;;6.65;2.28;;;23.30;99.90;;;;;;5093231;28;20093;-68
2021/12/08 01:16:14;;;;;;;8.75;2.10;;;23.70;99.90;;;;;;5095198;28;20016;-70
2021/12/08 01:18:42;;;;;;;6.70;2.03;;;24.00;99.90;;;;;;5097604;28;20020;-69
2021/12/08 01:21:11;;;;;;;6.88;2.00;;;24.30;99.90;;;;;;5099085;28;20528;-70
2021/12/08 01:23:39;;;;;;;5.43;1.98;;;24.20;99.90;;;;;;5094920;28;20047;-68
2021/12/08 01:26:08;;;;;;;6.82;1.80;;;24.10;99.90;;;;;;5093359;28;20016;-78
2021/12/08 01:28:36;;;;;;;5.03;1.88;;;23.80;99.90;;;;;;5106172;28;20044;-73
2021/12/08 01:31:04;;;;;;;4.45;1.98;;;23.70;99.90;;;;;;5088735;28;20024;-73
2021/12/08 01:33:34;;;;;;;3.70;1.58;;;23.60;99.90;;;;;;5097686;28;20016;-69
2021/12/08 01:36:04;;;;;;;6.28;2.10;;;23.60;99.90;;;;;;5092279;28;20047;-70
2021/12/08 01:38:32;;;;;;;3.17;1.40;;;23.50;99.90;;;;;;5096943;28;20032;-73
2021/12/08 01:40:59;;;;;;;3.08;1.50;;;23.40;99.90;;;;;;5092607;28;20036;-69
2021/12/08 01:43:28;;;;;;;3.92;1.70;;;23.40;99.90;;;;;;5093339;28;20028;-69
2021/12/08 01:46:04;;;;;;;4.70;1.48;;;23.10;99.90;;;;;;5105025;28;20024;-74
2021/12/08 01:48:36;;;;;;;3.85;1.90;;;23.10;99.90;;;;;;5096597;28;20024;-72
2021/12/08 01:51:11;;;;;;;5.80;1.77;;;23.20;99.90;;;;;;5100123;28;20023;-69
2021/12/08 01:53:45;;;;;;;4.90;1.77;;;23.10;99.90;;;;;;5100489;28;20089;-72
2021/12/08 01:56:12;;;;;;;4.22;1.45;;;22.60;99.90;;;;;;5099430;28;20038;-72
2021/12/08 01:58:40;;;;;;;4.22;1.80;;;22.50;99.90;;;;;;5108220;28;20031;-72
2021/12/08 02:01:13;;;;;;;7.65;1.77;;;22.50;99.90;;;;;;5083368;28;20042;-73
2021/12/08 02:03:41;;;;;;;5.45;1.92;;;22.50;99.90;;;;;;5099510;28;20124;-71
2021/12/08 02:06:10;;;;;;;4.78;2.10;;;22.30;99.90;;;;;;5092605;28;20024;-70
2021/12/08 02:08:38;;;;;;;8.40;2.05;;;22.40;99.90;;;;;;5107974;28;20047;-72
2021/12/08 02:11:06;;;;;;;5.53;1.65;;;22.30;99.90;;;;;;5101819;28;20186;-73
2021/12/08 02:13:39;;;;;;;7.57;2.30;;;22.20;99.90;;;;;;5102234;28;20024;-73
2021/12/08 02:16:14;;;;;;;4.72;2.00;;;22.00;99.90;;;;;;5104927;28;20413;-74
2021/12/08 02:18:43;;;;;;;4.70;1.65;;;21.80;99.90;;;;;;5101486;28;20020;-71
2021/12/08 02:21:29;;;;;;;4.07;1.77;;;21.70;99.90;;;;;;5081171;28;20118;-71
2021/12/08 02:24:02;;;;;;;3.40;1.50;;;21.60;99.90;;;;;;5083345;28;20032;-71
2021/12/08 02:26:29;;;;;;;7.60;2.25;;;21.40;99.90;;;;;;5099300;28;20027;-72
2021/12/08 02:28:58;;;;;;;6.10;1.88;;;21.30;99.90;;;;;;5107819;28;20023;-72
2021/12/08 02:31:34;;;;;;;4.28;1.67;;;21.00;99.90;;;;;;5095625;28;20020;-69
2021/12/08 02:50:19;;;;;;;6.10;1.88;;;20.10;99.90;;;;;;5102089;28;20310;-74
2021/12/08 02:52:47;;;;;;;6.97;1.65;;;20.10;99.90;;;;;;5101054;28;20032;-72
2021/12/08 02:55:14;;;;;;;5.40;2.00;;;20.10;99.90;;;;;;5101890;28;20020;-73
2021/12/08 02:57:41;;;;;;;5.68;1.65;;;20.10;99.90;;;;;;5101685;28;20023;-75
2021/12/08 03:00:11;;;;;;;4.97;1.80;;;20.10;99.90;;;;;;5078935;28;20082;-74
2021/12/08 03:02:38;;;;;;;2.83;1.60;;;20.10;99.90;;;;;;5102326;28;20547;-71
2021/12/08 03:05:05;;;;;;;5.85;1.80;;;20.10;99.90;;;;;;5081824;28;20437;-79
2021/12/08 05:02:48;;;;;;;10.38;2.63;;;18.60;99.90;;;;;;5062193;27;20031;-69
2021/12/08 05:05:26;;;;;;;5.35;2.10;;;18.60;99.90;;;;;;5060578;27;20839;-71
2021/12/08 05:08:00;;;;;;;8.50;2.10;;;18.60;99.90;;;;;;5060363;27;20120;-69
2021/12/08 05:10:34;;;;;;;11.07;2.90;;;18.50;99.90;;;;;;5061459;27;20061;-70
2021/12/08 05:13:04;;;;;;;8.57;2.75;;;18.50;99.90;;;;;;5093402;27;20077;-72
2021/12/08 05:15:35;;;;;;;9.05;2.83;;;18.30;99.90;;;;;;5059781;27;20081;-72
2021/12/08 05:18:12;;;;;;;6.50;2.23;;;18.30;99.90;;;;;;5064490;27;20540;-71
2021/12/08 05:20:40;;;;;;;8.85;2.75;;;18.30;99.90;;;;;;5058201;27;20433;-68
2021/12/08 05:23:22;;;;;;;10.32;2.38;;;18.30;99.90;;;;;;5101564;27;20029;-67
2021/12/08 05:25:50;;;;;;;8.05;2.70;;;18.30;99.90;;;;;;5051046;27;20552;-64
2021/12/08 05:28:20;;;;;;;14.90;3.65;;;18.10;99.90;;;;;;5084318;27;20030;-69
2021/12/08 05:31:00;;;;;;;11.70;6.13;;;17.90;99.90;;;;;;5067002;27;20038;-64
2021/12/08 05:33:28;;;;;;;11.10;5.90;;;17.60;99.90;;;;;;5066337;27;20081;-65
2021/12/08 05:35:57;;;;;;;10.05;5.82;;;17.50;99.90;;;;;;5061138;27;20032;-65
2021/12/08 05:38:25;;;;;;;11.50;6.93;;;17.30;99.90;;;;;;5067643;27;20029;-65
2021/12/08 05:44:12;;;;;;;14.05;11.50;;;17.10;99.90;;;;;;4691506;22;20601;-65
2021/12/08 05:46:44;;;;;;;11.45;8.63;;;17.10;99.90;;;;;;5069253;28;20087;-67
2021/12/08 05:49:14;;;;;;;13.30;10.02;;;17.00;99.90;;;;;;5077098;28;20020;-69
2021/12/08 05:51:43;;;;;;;14.68;10.50;;;17.00;99.90;;;;;;5079291;28;20036;-66
2021/12/08 05:54:16;;;;;;;18.10;13.27;;;16.90;99.90;;;;;;5073396;28;20037;-69
2021/12/08 05:56:44;;;;;;;18.20;13.80;;;16.90;99.90;;;;;;5070739;28;20028;-70
2021/12/08 05:59:12;;;;;;;11.07;9.23;;;16.90;99.90;;;;;;5066994;28;20115;-66
2021/12/08 06:01:51;;;;;;;11.20;9.38;;;16.80;99.90;;;;;;5068391;28;20392;-69
2021/12/08 06:04:19;;;;;;;12.60;9.75;;;16.80;99.90;;;;;;5059900;28;20075;-70
2021/12/08 06:06:47;;;;;;;14.85;10.73;;;16.80;99.90;;;;;;5064475;28;20027;-70
2021/12/08 06:09:17;;;;;;;16.10;9.38;;;16.80;99.90;;;;;;5069511;28;20025;-70
2021/12/08 06:11:45;;;;;;;11.13;8.23;;;16.80;99.90;;;;;;5064843;28;20504;-68
2021/12/08 06:14:14;;;;;;;13.80;9.88;;;16.80;99.90;;;;;;5071528;28;20029;-67
2021/12/08 06:16:44;;;;;;;12.75;9.48;;;16.90;99.90;;;;;;5067993;28;20121;-70
2021/12/08 06:19:13;;;;;;;11.05;9.05;;;16.90;99.90;;;;;;5069096;28;20070;-66
2021/12/08 06:21:40;;;;;;;12.10;8.88;;;16.90;99.90;;;;;;5068986;28;20620;-73
2021/12/08 06:24:12;;;;;;;13.52;9.70;;;16.80;99.90;;;;;;5063779;28;20017;-69
2021/12/08 06:26:39;;;;;;;13.75;9.75;;;16.80;99.90;;;;;;5067249;28;20252;-67
2021/12/08 06:29:08;;;;;;;19.08;12.88;;;16.80;99.90;;;;;;5068455;28;20485;-67
2021/12/08 06:31:37;;;;;;;11.38;9.35;;;16.80;99.90;;;;;;5069607;28;20350;-65
2021/12/08 06:34:05;;;;;;;15.23;10.95;;;16.90;99.90;;;;;;5069186;28;20119;-67
2021/12/08 06:36:37;;;;;;;16.27;9.70;;;16.80;99.90;;;;;;5070405;28;20039;-70
2021/12/08 06:39:08;;;;;;;15.02;11.45;;;16.80;99.90;;;;;;5070360;28;20039;-72
2021/12/08 06:41:42;;;;;;;17.00;10.30;;;16.90;99.90;;;;;;5067635;28;20119;-67
2021/12/08 06:44:13;;;;;;;15.88;8.35;;;16.90;99.90;;;;;;5069598;28;20020;-74
2021/12/08 06:46:42;;;;;;;14.95;9.40;;;16.90;99.90;;;;;;5069691;28;20391;-66
2021/12/08 06:49:13;;;;;;;13.25;10.18;;;16.80;99.90;;;;;;5064591;28;20043;-66
2021/12/08 06:51:52;;;;;;;15.27;11.40;;;16.90;99.90;;;;;;5066698;28;20048;-74
2021/12/08 06:54:33;;;;;;;10.52;9.48;;;17.00;99.90;;;;;;5066241;28;20027;-67
2021/12/08 06:57:18;;;;;;;13.73;9.00;;;17.00;99.90;;;;;;5065096;28;20044;-68
2021/12/08 07:00:14;;;;;;;17.17;9.27;;;16.90;99.90;;;;;;5064702;28;20522;-75
2021/12/08 07:05:41;;;;;;;14.40;8.75;;;16.90;99.90;;;;;;5065050;28;20540;-67
2021/12/08 07:08:10;;;;;;;13.43;8.93;;;16.80;99.90;;;;;;5065800;28;20028;-72
2021/12/08 07:10:44;;;;;;;13.32;9.70;;;16.80;99.90;;;;;;5066081;28;20035;-67
2021/12/08 07:13:17;;;;;;;11.23;9.18;;;16.90;99.90;;;;;;5064723;28;20523;-76
2021/12/08 07:16:00;;;;;;;11.80;9.68;;;17.00;99.90;;;;;;5064398;28;20028;-71
2021/12/08 07:18:49;;;;;;;11.10;8.77;;;17.10;99.90;;;;;;5070992;28;20492;-72
2021/12/08 07:21:16;;;;;;;14.77;11.02;;;17.00;99.90;;;;;;5065358;28;20300;-72
2021/12/08 07:24:10;;;;;;;10.57;9.45;;;16.90;99.90;;;;;;5066388;28;20028;-69
2021/12/08 07:26:40;;;;;;;12.85;9.27;;;16.90;99.90;;;;;;5058123;28;20032;-70
2021/12/08 07:29:10;;;;;;;13.82;10.52;;;16.90;99.90;;;;;;5064202;28;20024;-69
2021/12/08 07:31:41;;;;;;;12.43;10.35;;;16.90;99.90;;;;;;5062972;28;20024;-67
2021/12/08 07:34:15;;;;;;;13.52;10.65;;;16.90;99.90;;;;;;5064125;28;20055;-71
2021/12/08 07:36:45;;;;;;;15.77;11.68;;;17.00;99.90;;;;;;5065498;28;20024;-67
2021/12/08 07:39:22;;;;;;;15.95;12.75;;;16.90;99.90;;;;;;5063938;28;20147;-70
2021/12/08 07:41:55;;;;;;;15.48;11.88;;;16.80;99.90;;;;;;5062942;28;20101;-67
2021/12/08 07:44:24;;;;;;;18.55;13.73;;;16.90;99.90;;;;;;5065899;28;20074;-67
2021/12/08 07:46:59;;;;;;;13.80;12.18;;;16.90;99.90;;;;;;5066484;28;20491;-66
2021/12/08 07:49:33;;;;;;;13.70;12.20;;;16.80;99.90;;;;;;5065753;28;20059;-68
2021/12/08 07:52:41;;;;;;;13.80;11.52;;;16.80;99.90;;;;;;5067181;28;20416;-68
2021/12/08 07:55:14;;;;;;;17.83;12.43;;;16.80;99.90;;;;;;5063524;28;20051;-70
2021/12/08 07:57:41;;;;;;;15.45;13.15;;;16.80;99.90;;;;;;5065669;28;20355;-67
2021/12/08 08:00:21;;;;;;;15.10;11.98;;;16.80;99.90;;;;;;5063574;28;20032;-69
2021/12/08 08:02:49;;;;;;;17.60;10.85;;;16.80;99.90;;;;;;5063186;28;20116;-68
2021/12/08 08:05:18;;;;;;;15.10;11.30;;;16.80;99.90;;;;;;5066207;28;20454;-69
2021/12/08 08:07:47;;;;;;;12.50;10.15;;;16.80;99.90;;;;;;5066742;28;20052;-68
2021/12/08 08:10:17;;;;;;;11.77;10.13;;;16.80;99.90;;;;;;5066035;28;20048;-68
2021/12/08 08:12:51;;;;;;;15.48;10.75;;;16.90;99.90;;;;;;5065988;28;20036;-65
2021/12/08 08:15:22;;;;;;;15.55;11.75;;;17.00;99.90;;;;;;5065494;28;20100;-66
2021/12/08 08:17:53;;;;;;;21.17;13.88;;;16.90;99.90;;;;;;5064149;28;20036;-66
2021/12/08 08:20:31;;;;;;;22.25;15.77;;;16.90;99.90;;;;;;5065725;28;20092;-69
2021/12/08 08:23:01;;;;;;;25.02;21.58;;;16.90;99.90;;;;;;5064806;28;20493;-67
2021/12/08 08:25:41;;;;;;;24.83;17.60;;;16.80;99.90;;;;;;5064908;28;20024;-65
2021/12/08 08:28:09;;;;;;;15.25;12.88;;;16.70;99.90;;;;;;5063707;28;20533;-70
2021/12/08 08:30:51;;;;;;;15.02;10.77;;;16.60;99.90;;;;;;5067894;28;20553;-66
2021/12/08 08:33:18;;;;;;;15.30;9.00;;;16.60;99.90;;;;;;5064882;28;20052;-70
2021/12/08 08:35:54;;;;;;;14.65;10.63;;;16.50;99.90;;;;;;5066300;28;20067;-66
2021/12/08 08:38:29;;;;;;;15.60;13.82;;;16.50;99.90;;;;;;5064088;28;21475;-68
2021/12/08 08:41:04;;;;;;;16.13;12.10;;;16.50;99.90;;;;;;5063618;28;20060;-68
2021/12/08 08:43:32;;;;;;;20.83;11.93;;;16.50;99.90;;;;;;5061262;28;20568;-69
2021/12/08 08:46:07;;;;;;;16.52;12.48;;;16.50;99.90;;;;;;5064314;28;20044;-66
2021/12/08 08:48:46;;;;;;;17.30;13.10;;;16.50;99.90;;;;;;5065139;28;20025;-69
2021/12/08 08:51:18;;;;;;;17.73;10.82;;;16.60;99.90;;;;;;5065279;28;20035;-69
2021/12/08 08:53:49;;;;;;;15.40;8.38;;;16.60;99.90;;;;;;5065384;28;20040;-67
2021/12/08 08:56:29;;;;;;;11.10;6.10;;;16.50;99.90;;;;;;5062796;28;20393;-69
2021/12/08 08:59:00;;;;;;;11.88;6.53;;;16.50;99.90;;;;;;5060073;28;20070;-67
2021/12/08 09:01:35;;;;;;;12.13;7.05;;;16.50;99.90;;;;;;5062773;28;20115;-69
2021/12/08 09:04:07;;;;;;;11.23;6.85;;;16.50;99.90;;;;;;5065233;28;20032;-68
2021/12/08 09:06:43;;;;;;;10.93;5.32;;;16.50;99.90;;;;;;5066233;28;20024;-68
2021/12/08 09:09:15;;;;;;;11.45;4.93;;;16.60;99.90;;;;;;5064462;28;20029;-66
2021/12/08 09:11:51;;;;;;;8.18;5.05;;;16.60;99.90;;;;;;5070336;28;20025;-67
2021/12/08 09:14:47;;;;;;;11.98;7.38;;;16.50;99.90;;;;;;5065927;28;20012;-69
2021/12/08 09:17:18;;;;;;;12.02;7.60;;;16.50;99.90;;;;;;5065358;28;20373;-70
2021/12/08 09:19:58;;;;;;;12.02;7.80;;;16.60;99.90;;;;;;5064318;28;20054;-72
2021/12/08 09:22:33;;;;;;;11.25;7.82;;;16.60;99.90;;;;;;5065925;28;20025;-68
2021/12/08 09:25:12;;;;;;;14.60;7.20;;;16.60;99.90;;;;;;5061978;28;20029;-73
2021/12/08 09:27:44;;;;;;;11.20;6.78;;;16.60;99.90;;;;;;5065529;28;20408;-70
2021/12/08 09:30:17;;;;;;;9.98;6.68;;;16.50;99.90;;;;;;5067357;28;20028;-69
2021/12/08 09:32:51;;;;;;;15.52;8.93;;;16.50;99.90;;;;;;5067420;28;20035;-69
2021/12/08 09:35:29;;;;;;;17.85;7.03;;;16.50;99.90;;;;;;5067330;28;20031;-69
2021/12/08 09:38:07;;;;;;;9.95;6.75;;;16.50;99.90;;;;;;5073365;28;20472;-69
2021/12/08 09:41:01;;;;;;;9.90;5.63;;;16.40;99.90;;;;;;5065890;28;20845;-71
2021/12/08 09:43:30;;;;;;;10.35;5.55;;;16.50;99.90;;;;;;5065493;28;20102;-69
2021/12/08 09:46:19;;;;;;;5.85;4.72;;;16.50;99.90;;;;;;5062409;28;20040;-67
2021/12/08 09:48:47;;;;;;;13.82;5.03;;;16.50;99.90;;;;;;5066416;28;20028;-67
2021/12/08 09:51:20;;;;;;;9.30;4.68;;;16.50;99.90;;;;;;5069400;28;20598;-70
2021/12/08 09:53:48;;;;;;;20.70;11.23;;;16.50;99.90;;;;;;5069543;28;20043;-67
2021/12/08 09:56:16;;;;;;;10.63;7.43;;;16.50;99.90;;;;;;5069200;28;20021;-67
2021/12/08 09:58:44;;;;;;;7.47;4.55;;;16.50;99.90;;;;;;4715057;28;10000249;-71
2021/12/08 10:01:18;;;;;;;7.30;5.00;;;16.50;99.90;;;;;;5065682;28;20059;-67
2021/12/08 10:03:46;;;;;;;8.52;5.10;;;16.50;99.90;;;;;;5064191;28;20477;-68
2021/12/08 10:06:15;;;;;;;7.13;4.70;;;16.50;99.90;;;;;;5065393;28;20427;-69
2021/12/08 10:08:44;;;;;;;7.22;5.03;;;16.50;99.90;;;;;;5066131;28;20496;-68
2021/12/08 10:11:12;;;;;;;7.30;5.32;;;16.50;99.90;;;;;;5064662;28;20028;-68
2021/12/08 10:13:40;;;;;;;14.75;5.57;;;16.60;99.90;;;;;;5061782;28;20170;-68
2021/12/08 10:16:08;;;;;;;9.93;5.25;;;16.50;99.90;;;;;;5064977;28;20040;-66
2021/12/08 10:18:36;;;;;;;7.60;4.68;;;16.60;99.90;;;;;;5065817;28;20610;-69
2021/12/08 10:21:04;;;;;;;6.80;4.60;;;16.60;99.90;;;;;;5066454;28;20028;-65
2021/12/08 10:23:39;;;;;;;7.20;5.50;;;16.60;99.90;;;;;;5065839;28;20535;-68
2021/12/08 10:26:34;;;;;;;9.38;4.78;;;16.60;99.90;;;;;;5064509;28;20033;-69
2021/12/08 10:29:06;;;;;;;8.20;5.22;;;16.60;99.90;;;;;;5057410;28;20094;-69
2021/12/08 10:31:53;;;;;;;7.57;4.97;;;16.60;99.90;;;;;;5065255;28;20107;-67
2021/12/08 10:34:29;;;;;;;9.40;4.90;;;16.60;99.90;;;;;;5063088;28;20039;-69
2021/12/08 10:37:17;;;;;;;7.70;4.55;;;16.70;99.90;;;;;;5065584;28;20052;-67
2021/12/08 10:39:46;;;;;;;7.05;5.03;;;16.70;99.90;;;;;;5063336;28;20121;-68
2021/12/08 10:42:22;;;;;;;6.60;4.85;;;16.70;99.90;;;;;;5066835;28;20035;-68
2021/12/08 10:47:49;;;;;;;7.57;5.78;;;16.70;99.90;;;;;;5061184;28;20127;-67
2021/12/08 10:56:19;;;;;;;8.27;5.43;;;16.70;99.90;;;;;;5066181;28;20581;-69
2021/12/08 10:58:53;;;;;;;10.70;5.47;;;16.70;99.90;;;;;;5061558;28;20162;-67
2021/12/08 11:01:23;;;;;;;8.98;5.32;;;16.70;99.90;;;;;;5064805;28;20433;-68
2021/12/08 11:03:57;;;;;;;8.00;5.32;;;16.80;99.90;;;;;;5066212;28;20016;-69
2021/12/08 11:06:28;;;;;;;8.07;5.28;;;16.70;99.90;;;;;;5066597;28;20013;-70
2021/12/08 11:08:56;;;;;;;10.10;5.25;;;16.80;99.90;;;;;;5066686;28;20055;-68
2021/12/08 11:11:32;;;;;;;8.40;4.90;;;16.80;99.90;;;;;;5066677;28;20095;-69
2021/12/08 11:14:08;;;;;;;11.52;5.07;;;16.80;99.90;;;;;;5065772;28;20029;-67
2021/12/08 11:16:37;;;;;;;6.93;5.50;;;16.80;99.90;;;;;;5063669;28;20036;-67
2021/12/08 11:19:20;;;;;;;11.18;5.32;;;16.80;99.90;;;;;;5069632;28;20029;-69
2021/12/08 11:21:53;;;;;;;7.03;5.00;;;16.80;99.90;;;;;;5070395;28;20106;-67
2021/12/08 11:24:35;;;;;;;8.07;4.82;;;16.80;99.90;;;;;;5067843;28;20033;-69
2021/12/08 11:27:06;;;;;;;6.60;5.07;;;16.80;99.90;;;;;;5070078;28;20031;-69
2021/12/08 11:29:39;;;;;;;11.20;5.38;;;16.80;99.90;;;;;;5065296;28;20035;-70
2021/12/08 11:32:12;;;;;;;7.03;5.05;;;16.80;99.90;;;;;;5064274;28;20323;-69
2021/12/08 11:34:46;;;;;;;10.95;5.43;;;16.80;99.90;;;;;;5063866;28;20679;-69
2021/12/08 11:37:20;;;;;;;13.32;5.75;;;16.80;99.90;;;;;;5069014;28;20028;-69
2021/12/08 11:39:55;;;;;;;17.98;6.28;;;16.80;99.90;;;;;;5067572;28;20481;-69
2021/12/08 11:42:35;;;;;;;8.65;5.50;;;16.80;99.90;;;;;;5066039;28;20525;-69
2021/12/08 11:45:13;;;;;;;8.75;5.97;;;16.80;99.90;;;;;;5065014;28;20189;-68
2021/12/08 11:47:42;;;;;;;7.97;5.90;;;16.80;99.90;;;;;;5065218;28;20030;-69
2021/12/08 11:50:13;;;;;;;9.85;6.03;;;16.80;99.90;;;;;;5065558;28;20032;-67
2021/12/08 11:52:40;;;;;;;8.63;6.20;;;16.80;99.90;;;;;;5063624;28;20024;-68
2021/12/08 11:55:11;;;;;;;10.70;6.72;;;16.80;99.90;;;;;;5067932;28;20036;-67
2021/12/08 11:57:45;;;;;;;11.68;7.00;;;16.80;99.90;;;;;;5065590;28;20027;-69
2021/12/08 12:00:23;;;;;;;7.93;6.20;;;16.80;99.90;;;;;;5061643;28;20158;-69
2021/12/08 12:02:59;;;;;;;11.90;5.70;;;16.80;99.90;;;;;;5056436;28;20082;-69
2021/12/08 12:05:31;;;;;;;19.73;6.15;;;16.80;99.90;;;;;;5064980;28;20020;-69
2021/12/08 12:07:59;;;;;;;10.43;6.25;;;16.80;99.90;;;;;;5063847;28;20021;-69
2021/12/08 12:10:30;;;;;;;8.93;5.30;;;16.80;99.90;;;;;;5065069;28;20051;-68
2021/12/08 12:12:59;;;;;;;8.90;5.77;;;16.80;99.90;;;;;;5063986;28;20074;-69
2021/12/08 12:15:26;;;;;;;9.18;6.25;;;16.70;99.90;;;;;;5069208;28;20384;-68
2021/12/08 12:17:53;;;;;;;14.27;6.63;;;16.70;99.90;;;;;;5065438;28;20396;-67
2021/12/08 12:20:46;;;;;;;14.60;7.10;;;16.80;99.90;;;;;;5062709;28;20489;-69
2021/12/08 12:23:13;;;;;;;;;;;16.80;99.90;;;;;;5064911;28;20546;-68
2021/12/08 12:26:16;;;;;;;11.05;5.90;;;16.70;99.90;;;;;;5066800;28;20356;-69
2021/12/08 12:28:43;;;;;;;;;;;16.80;99.90;;;;;;5067898;28;20037;-68
2021/12/08 12:31:22;;;;;;;9.20;5.38;;;16.80;99.90;;;;;;5067486;28;19916;-68
2021/12/08 12:33:51;;;;;;;15.43;9.07;;;16.70;99.90;;;;;;5068512;28;20480;-68
2021/12/08 12:36:32;;;;;;;11.85;7.97;;;16.70;99.90;;;;;;5068469;28;20071;-68
2021/12/08 12:39:15;;;;;;;11.77;7.07;;;16.60;99.90;;;;;;5068074;28;20437;-68
2021/12/08 12:41:42;;;;;;;;;;;16.50;99.90;;;;;;5069047;28;20427;-69
2021/12/08 12:44:29;;;;;;;13.45;6.63;;;16.50;99.90;;;;;;5066987;28;20035;-69
2021/12/08 12:47:09;;;;;;;9.80;5.90;;;16.40;99.90;;;;;;5066468;28;20121;-69
2021/12/08 12:49:38;;;;;;;11.60;7.20;;;16.40;99.90;;;;;;5067758;28;20017;-67
2021/12/08 12:52:09;;;;;;;9.30;6.13;;;16.40;99.90;;;;;;5065097;28;20349;-68
2021/12/08 12:54:37;;;;;;;11.13;6.38;;;16.40;99.90;;;;;;5066745;28;20142;-68
2021/12/08 12:57:06;;;;;;;9.13;6.13;;;16.40;99.90;;;;;;5067662;28;20021;-68
2021/12/08 12:59:45;;;;;;;13.48;6.63;;;16.40;99.90;;;;;;5066981;28;20085;-68
2021/12/08 13:02:34;;;;;;;13.02;6.68;;;16.40;99.90;;;;;;5065787;28;20024;-70
2021/12/08 13:05:10;;;;;;;12.90;6.25;;;16.30;99.90;;;;;;5069426;28;20089;-70
2021/12/08 13:07:56;;;;;;;9.50;6.40;;;16.20;99.90;;;;;;5071934;28;20032;-70
2021/12/08 13:10:32;;;;;;;28.85;7.63;;;16.10;99.90;;;;;;5071183;28;20028;-69
2021/12/08 13:13:13;;;;;;;7.85;5.72;;;16.10;99.90;;;;;;5071581;28;20031;-66
2021/12/08 13:15:46;;;;;;;12.90;7.57;;;16.00;99.90;;;;;;5071849;28;20028;-67
2021/12/08 13:18:15;;;;;;;13.30;7.35;;;16.10;99.90;;;;;;5072330;28;20050;-68
2021/12/08 13:20:57;;;;;;;9.70;7.20;;;16.10;99.90;;;;;;5071064;28;20101;-67
2021/12/08 13:23:31;;;;;;;23.77;8.48;;;16.10;99.90;;;;;;5071541;28;20094;-67
2021/12/08 13:28:53;;;;;;;11.30;7.10;;;16.30;99.90;;;;;;5070162;28;20436;-68
2021/12/08 13:34:04;;;;;;;13.77;6.18;;;16.40;99.90;;;;;;5070052;28;20024;-68
2021/12/08 13:36:37;;;;;;;16.05;7.43;;;16.40;99.90;;;;;;5071053;28;20028;-68
2021/12/08 13:39:13;;;;;;;7.38;5.93;;;16.40;99.90;;;;;;5065218;28;20020;-68
2021/12/08 13:41:53;;;;;;;8.38;5.72;;;16.40;99.90;;;;;;5064326;28;20035;-68
2021/12/08 13:44:35;;;;;;;11.07;5.90;;;16.50;99.90;;;;;;5069128;28;20155;-68
2021/12/08 13:47:22;;;;;;;8.90;6.15;;;16.50;99.90;;;;;;5070872;28;20034;-68
2021/12/08 13:49:53;;;;;;;9.38;6.15;;;16.40;99.90;;;;;;5069975;28;20052;-69
2021/12/08 13:52:31;;;;;;;10.02;6.20;;;16.30;99.90;;;;;;5069699;28;20036;-68
2021/12/08 13:55:18;;;;;;;9.68;6.28;;;16.30;99.90;;;;;;5069240;28;20253;-68
2021/12/08 13:57:56;;;;;;;14.23;6.22;;;16.30;99.90;;;;;;5070117;28;20107;-68
2021/12/08 14:00:26;;;;;;;8.18;6.70;;;16.20;99.90;;;;;;5070937;28;20047;-69
2021/12/08 14:03:15;;;;;;;11.95;6.55;;;16.20;99.90;;;;;;5069101;28;20033;-68
2021/12/08 14:05:56;;;;;;;13.23;6.80;;;16.20;99.90;;;;;;5070466;28;20021;-68
2021/12/08 14:08:34;;;;;;;14.52;7.10;;;16.20;99.90;;;;;;5070578;28;20048;-68
2021/12/08 14:11:12;;;;;;;18.13;8.32;;;16.30;99.90;;;;;;5069442;28;20035;-68
2021/12/08 14:13:52;;;;;;;13.45;8.25;;;16.20;99.90;;;;;;5066257;28;20032;-69
2021/12/08 14:16:24;;;;;;;12.30;7.60;;;16.30;99.90;;;;;;5063061;28;20443;-69
2021/12/08 14:18:53;;;;;;;12.93;7.18;;;16.20;99.90;;;;;;5070478;28;20020;-68
2021/12/08 14:21:31;;;;;;;11.63;8.68;;;16.20;99.90;;;;;;5068343;28;20089;-69
2021/12/08 14:24:04;;;;;;;12.57;8.40;;;16.20;99.90;;;;;;5069633;28;20028;-68
2021/12/08 14:26:37;;;;;;;11.40;8.40;;;16.20;99.90;;;;;;5069279;28;20078;-69
2021/12/08 14:29:09;;;;;;;9.85;7.10;;;16.30;99.90;;;;;;5070018;28;20017;-68
2021/12/08 14:31:44;;;;;;;11.10;7.30;;;16.30;99.90;;;;;;5069718;28;20028;-68
2021/12/08 14:34:15;;;;;;;12.85;7.70;;;16.30;99.90;;;;;;5068822;28;20069;-69
2021/12/08 14:36:47;;;;;;;12.80;7.40;;;16.30;99.90;;;;;;5069019;28;20396;-68
2021/12/08 14:39:19;;;;;;;15.13;7.60;;;16.30;99.90;;;;;;5069879;28;20035;-68
2021/12/08 14:41:50;;;;;;;;;;;16.30;99.90;;;;;;5070734;28;20123;-69
2021/12/08 14:44:20;;;;;;;10.70;6.85;;;16.30;99.90;;;;;;5069415;28;19919;-69
2021/12/08 14:46:51;;;;;;;11.68;6.90;;;16.30;99.90;;;;;;5068420;28;20484;-68
2021/12/08 14:49:22;;;;;;;10.38;6.50;;;16.40;99.90;;;;;;5068547;28;20542;-69
2021/12/08 14:51:56;;;;;;;10.55;6.00;;;16.30;99.90;;;;;;5069254;28;20033;-68
2021/12/08 14:54:28;;;;;;;10.50;5.93;;;16.40;99.90;;;;;;5063497;28;20028;-68
2021/12/08 14:57:01;;;;;;;11.45;6.28;;;16.40;99.90;;;;;;5068374;28;20013;-68
2021/12/08 14:59:27;;;;;;;;;;;16.40;99.90;;;;;;5067817;28;20518;-69
2021/12/08 15:01:54;;;;;;;12.23;6.30;;;16.50;99.90;;;;;;5067461;28;19916;-69
2021/12/08 15:04:22;;;;;;;8.15;7.03;;;16.40;99.90;;;;;;5069906;28;20028;-70
2021/12/08 15:07:09;;;;;;;10.82;7.03;;;16.40;99.90;;;;;;5068940;28;20043;-68
2021/12/08 15:09:36;;;;;;;13.80;7.82;;;16.30;99.90;;;;;;5068555;28;20025;-68
2021/12/08 15:12:05;;;;;;;14.80;8.85;;;16.30;99.90;;;;;;5068416;28;20415;-68
2021/12/08 15:14:42;;;;;;;11.85;6.55;;;16.30;99.90;;;;;;5068381;28;20043;-68
2021/12/08 15:17:09;;;;;;;13.45;6.53;;;16.30;99.90;;;;;;5063852;28;20031;-68
2021/12/08 15:19:48;;;;;;;17.27;8.27;;;16.20;99.90;;;;;;5068607;28;20412;-68
2021/12/08 15:22:16;;;;;;;14.68;9.15;;;16.20;99.90;;;;;;5068734;28;20107;-68
2021/12/08 15:24:43;;;;;;;12.43;8.52;;;16.20;99.90;;;;;;5068135;28;20028;-68
2021/12/08 15:27:16;;;;;;;15.40;9.80;;;16.20;99.90;;;;;;5067732;28;20376;-68
2021/12/08 15:29:43;;;;;;;21.98;12.15;;;16.30;99.90;;;;;;5069230;28;20091;-68
2021/12/08 15:32:16;;;;;;;31.55;12.18;;;16.30;99.90;;;;;;5068334;28;20107;-68
2021/12/08 15:34:44;;;;;;;14.20;8.15;;;16.30;99.90;;;;;;5067822;28;20083;-68
2021/12/08 15:37:14;;;;;;;15.73;9.35;;;16.30;99.90;;;;;;5067892;28;20032;-67
2021/12/08 15:39:42;;;;;;;13.27;9.45;;;16.20;99.90;;;;;;5067858;28;20025;-68
2021/12/08 15:42:15;;;;;;;15.40;9.57;;;16.10;99.90;;;;;;5068190;28;20158;-68
2021/12/08 15:44:42;;;;;;;;;;;16.10;99.90;;;;;;5068935;28;20131;-68
2021/12/08 15:47:10;;;;;;;15.10;11.48;;;16.00;99.90;;;;;;5068555;28;19908;-69